KNBG/NBG METAR and TAF weather

Enter ICAO airport designator
Station Type Date Time Source
KNBG METAR 2019/11/14 03:55 UTC NOAA

KNBG 140355Z 03006KT 10SM SCT030 OVC180 08/05 A3020 RMK AO2 SLP226 T00830050 $


Station Type Date Time Source
KNBG Decoded METAR 2019/11/14 03:55 UTC NOAA

NEW ORLEANS NAVAL AIR STN, LA, United States (KNBG) 29-50N 90-01W
Nov 13, 2019 - 10:55 PM EST / 2019.11.14 0355 UTC
Wind: from the NNE (030 degrees) at 7 MPH (6 KT):0
Visibility: 10 mile(s):0
Sky conditions: overcast
Temperature: 46.9 F (8.3 C)
Dew Point: 41.0 F (5.0 C)
Relative Humidity: 79%
Pressure (altimeter): 30.2 in. Hg (1022 hPa)
ob: KNBG 140355Z 03006KT 10SM SCT030 OVC180 08/05 A3020 RMK AO2 SLP226 T00830050
cycle: 4

Station Type Date Time Source
KNBG TAF 2019/11/14 23:06 UTC NOAA

TAF COR KNBG 1323/1423 08006KT 9999 SCT100 BKN250 QNH3018INS
BECMG 1407/1409 03006KT 9999 SCT020 BKN100 OVC150 QNH3014INS
BECMG 1414/1416 01008KT 9999 VCSH SCT015 OVC040 QNH3010INS
TEMPO 1415/1421 02010G18KT 6000 SHRA BKN015 OVC030 AUTOMATED SENSOR METWATCH 1423 TIL 1411 T02/1411Z T12/1421Z COR 2310 FN20038

Example: see airport list